Bridgehampton, NY (11932)

12:23 AM EST on January 19, 2017 (GMT -0500)
Water Mill | | Change Station

Elev 0 ft 40.92 °N, 72.32 °W | Updated 1 minute ago

Overcast
Overcast
41.0 °F
Feels Like 41 °F
N
1.9
Wind Variable Wind from North
Gusts 4.3 mph

Today
High -- | Low -- °F
--% Chance of Precip.
Yesterday
High -- | Low -- °F
Precip. -- in
Pressure 29.99 in
Visibility 10.0 miles
Clouds Overcast 700 ft
Windchill 41 °F
Dew Point 37 °F
Humidity 87%
Rainfall Not available.
Snow Depth Not available.
7:09 AM 4:50 PM
Waning Gibbous, 57% visible
METAR KHTO 190515Z AUTO 36005KT 10SM OVC007 03/02 A2999 RMK AO2 T00270020
Pressure 29.99 in
Visibility 10.0 miles
Clouds Overcast 700 ft
Windchill 41 °F
Dew Point 37 °F
Humidity 87%
Rainfall Not available.
Snow Depth Not available.
7:09 AM 4:50 PM
Waning Gibbous, 57% visible
METAR KHTO 190515Z AUTO 36005KT 10SM OVC007 03/02 A2999 RMK AO2 T00270020

Get Your Daily Forecast Email!

Thanks for signing up!

Be on the lookout for a verification email in your inbox.

You'll start receiving the daily forecast at 8 AM.

×

10-Day Weather Forecast

Almanac

Astronomy

Jan. 19, 2017 Rise Set
Actual Time
Civil Twilight
Nautical Twilight
Astronomical Twilight
Moon
Length of Visible Light
Length of Day
Tomorrow will be .
, % of the Moon is Illuminated

Today's Extremes

State Highs State Lows

Community

WunderPhotos

Upload Photos

1,962,540 photos uploaded!

WunderBlog® & News

Nearby

Air Quality

  Air Quality AQ Index Pollutant
Not available.

Snow Depth

Station Depth Elevation

Earthquake Activity

City Distance Mag. Time & Date
Minimum magnitude displayed is 2.5.

Coastal Water Temperatures

Place Temperature

Stations

Nearby Weather Stations

Station Location Temp. Windchill Dew Point Humidity Wind Precip. Elev Updated Type
                   

Watches & Warnings

Small Craft for Hazardous Seas Advisory
Issued: 9:18 PM EST Jan. 18, 2017 – National Weather Service

... Small Craft Advisory for hazardous seas in effect until 6 PM
EST Thursday...

The National Weather Service in Upton has issued a Small Craft
Advisory for hazardous seas... which is in effect until 6 PM EST
Thursday.

* Seas... 3 to 6 feet.

Precautionary/preparedness actions...

A Small Craft Advisory for hazardous seas means that seas of 5 ft
or higher are expected or occurring... and hazardous to small
craft. Mariners should avoid shoaling areas. Long period swells
can sharpen into large breaking waves in shoaling areas. It is
not unusual for waves to break much farther from shoaling areas
than is normally experienced. Remember that breaking waves can
easily capsize even larger vessels.



Maloit